createdAt,value
2024-05-09T00:02:58.783Z,4.07
2024-05-09T00:06:06.092Z,4.22
2024-05-09T00:09:10.486Z,3.92
2024-05-09T00:12:14.871Z,3.70
2024-05-09T00:15:19.228Z,3.97
2024-05-09T00:18:23.718Z,3.97
2024-05-09T00:21:30.671Z,4.00
2024-05-09T00:24:34.939Z,3.83
2024-05-09T00:27:39.275Z,3.45
2024-05-09T00:30:43.782Z,3.67
2024-05-09T00:33:48.217Z,3.40
2024-05-09T00:36:55.181Z,3.85
2024-05-09T00:39:59.450Z,3.75
2024-05-09T00:43:03.755Z,4.43
2024-05-09T00:46:08.804Z,4.90
2024-05-09T00:49:14.371Z,4.15
2024-05-09T00:52:21.502Z,3.90
2024-05-09T00:55:26.605Z,4.55
2024-05-09T00:58:32.216Z,4.10
2024-05-09T01:01:37.428Z,4.72
2024-05-09T01:04:41.922Z,5.60
2024-05-09T01:07:49.104Z,4.65
2024-05-09T01:10:53.575Z,4.97
2024-05-09T01:13:58.749Z,3.95
2024-05-09T01:17:03.185Z,4.43
2024-05-09T01:20:10.945Z,4.38
2024-05-09T01:23:23.237Z,4.30
2024-05-09T01:26:27.658Z,4.72
2024-05-09T01:29:32.009Z,4.32
2024-05-09T01:32:36.641Z,4.90
2024-05-09T01:35:42.524Z,5.10
2024-05-09T01:38:50.020Z,4.22
2024-05-09T01:41:54.388Z,4.45
2024-05-09T01:44:58.656Z,5.18
2024-05-09T01:48:03.684Z,4.03
2024-05-09T01:51:08.571Z,4.75
2024-05-09T01:54:15.618Z,4.45
2024-05-09T01:57:20.024Z,3.70
2024-05-09T02:00:36.429Z,4.47
2024-05-09T02:03:47.325Z,4.43
2024-05-09T02:06:51.722Z,4.85
2024-05-09T02:09:58.644Z,3.75
2024-05-09T02:13:03.016Z,4.47
2024-05-09T02:16:11.886Z,4.03
2024-05-09T02:19:16.334Z,4.05
2024-05-09T02:22:20.729Z,5.05
2024-05-09T02:25:27.719Z,5.05
2024-05-09T02:28:32.005Z,4.78
2024-05-09T02:31:36.323Z,4.85
2024-05-09T02:34:40.601Z,3.97
2024-05-09T02:37:44.979Z,4.30
2024-05-09T02:40:49.367Z,4.38
2024-05-09T02:43:53.693Z,4.30
2024-05-09T02:46:55.542Z,4.35
2024-05-09T02:53:01.544Z,3.53
2024-05-09T02:59:10.577Z,4.50
2024-05-09T03:05:16.613Z,4.13
2024-05-09T03:08:21.061Z,4.22
2024-05-09T03:11:26.181Z,4.88
2024-05-09T03:14:31.373Z,5.45
2024-05-09T03:17:33.559Z,9.00
2024-05-09T03:20:38.412Z,5.63
2024-05-09T03:23:41.257Z,5.88
2024-05-09T03:26:48.190Z,6.15
2024-05-09T03:29:49.879Z,5.10
2024-05-09T03:32:54.276Z,5.45
2024-05-09T03:35:56.070Z,4.63
2024-05-09T03:39:00.435Z,6.75
2024-05-09T03:42:08.140Z,6.50
2024-05-09T03:45:12.448Z,5.70
2024-05-09T03:48:14.384Z,5.95
2024-05-09T03:51:18.799Z,5.75
2024-05-09T03:54:20.603Z,6.32
2024-05-09T04:00:36.841Z,6.25
2024-05-09T04:03:43.220Z,7.13
2024-05-09T04:06:45.010Z,5.95
2024-05-09T04:12:56.165Z,6.13
2024-05-09T04:16:00.545Z,5.25
2024-05-09T04:19:02.445Z,5.47
2024-05-09T04:22:07.192Z,5.70
2024-05-09T04:25:08.895Z,5.25
2024-05-09T04:28:16.552Z,3.72
2024-05-09T04:31:18.295Z,4.90
2024-05-09T04:37:27.418Z,5.32
2024-05-09T04:40:34.047Z,5.63
2024-05-09T04:43:43.242Z,5.00
2024-05-09T04:46:47.414Z,5.82
2024-05-09T04:49:52.046Z,5.57
2024-05-09T04:52:53.872Z,5.50
2024-05-09T04:59:02.493Z,5.07
2024-05-09T05:02:07.242Z,4.97
2024-05-09T05:05:09.642Z,5.07
2024-05-09T05:08:15.344Z,5.63
2024-05-09T05:11:17.491Z,4.80
2024-05-09T05:14:24.559Z,4.70
2024-05-09T05:17:28.977Z,4.30
2024-05-09T05:20:33.699Z,4.38
2024-05-09T05:23:40.765Z,4.10
2024-05-09T05:26:42.686Z,4.30
2024-05-09T05:29:49.678Z,4.78
2024-05-09T05:32:54.129Z,4.55
2024-05-09T05:35:57.292Z,4.90
2024-05-09T05:39:01.621Z,4.80
2024-05-09T05:42:03.435Z,4.97
2024-05-09T05:48:16.197Z,4.38
2024-05-09T05:51:20.955Z,4.63
2024-05-09T05:54:22.834Z,4.72
2024-05-09T06:00:38.204Z,4.47
2024-05-09T06:03:44.561Z,4.47
2024-05-09T06:06:48.976Z,5.22
2024-05-09T06:09:50.775Z,4.72
2024-05-09T06:12:55.072Z,4.57
2024-05-09T06:16:04.860Z,4.65
2024-05-09T06:19:06.747Z,4.40
2024-05-09T06:22:11.380Z,4.53
2024-05-09T06:25:13.233Z,5.32
2024-05-09T06:28:17.567Z,4.50
2024-05-09T06:31:22.521Z,4.10
2024-05-09T06:34:26.948Z,4.28
2024-05-09T06:37:28.807Z,3.63
2024-05-09T06:43:44.677Z,4.43
2024-05-09T06:46:49.194Z,4.32
2024-05-09T06:49:53.726Z,4.35
2024-05-09T06:52:55.520Z,3.33
2024-05-09T06:55:59.868Z,3.90
2024-05-09T06:59:01.810Z,3.70
2024-05-09T07:02:08.939Z,3.65
2024-05-09T07:05:10.958Z,3.83
2024-05-09T07:08:15.422Z,3.42
2024-05-09T07:11:17.253Z,3.85
2024-05-09T07:14:21.671Z,3.70
2024-05-09T07:17:26.332Z,3.70
2024-05-09T07:20:34.617Z,3.53
2024-05-09T07:23:39.814Z,3.97
2024-05-09T07:26:44.243Z,3.65
2024-05-09T07:29:45.991Z,4.18
2024-05-09T07:32:53.223Z,3.80
2024-05-09T07:35:56.975Z,3.58
2024-05-09T07:39:01.281Z,3.13
2024-05-09T07:42:03.063Z,3.47
2024-05-09T07:45:29.543Z,3.38
2024-05-09T07:50:34.370Z,3.05
2024-05-09T07:53:22.102Z,3.20
2024-05-09T07:55:24.193Z,3.85
2024-05-09T07:58:27.796Z,3.25
2024-05-09T08:01:32.411Z,3.25
2024-05-09T08:04:36.827Z,3.38
2024-05-09T08:07:41.124Z,2.90
2024-05-09T08:10:43.382Z,3.70
2024-05-09T08:13:48.026Z,3.75
2024-05-09T08:16:49.770Z,3.13
2024-05-09T08:19:56.631Z,3.40
2024-05-09T08:22:58.440Z,3.30
2024-05-09T08:26:02.708Z,3.67
2024-05-09T08:29:04.547Z,3.53
2024-05-09T08:32:12.506Z,3.22
2024-05-09T08:35:16.945Z,3.30
2024-05-09T08:38:21.311Z,3.17
2024-05-09T08:41:23.023Z,3.10
2024-05-09T08:44:27.308Z,3.60
2024-05-09T08:47:31.612Z,3.20
2024-05-09T08:50:42.525Z,3.00
2024-05-09T08:53:44.397Z,3.17
2024-05-09T08:56:50.793Z,2.90
2024-05-09T08:59:53.789Z,2.90
2024-05-09T09:03:00.176Z,2.80
2024-05-09T09:06:09.327Z,2.90
2024-05-09T09:09:12.059Z,2.85
2024-05-09T09:12:17.148Z,3.53
2024-05-09T09:15:18.870Z,3.00
2024-05-09T09:18:23.264Z,3.38
2024-05-09T09:21:27.660Z,2.90
2024-05-09T09:24:32.002Z,3.08
2024-05-09T09:27:33.929Z,2.75
2024-05-09T09:30:41.717Z,2.90
2024-05-09T09:33:46.401Z,3.22
2024-05-09T09:36:51.234Z,2.42
2024-05-09T09:39:56.173Z,2.30
2024-05-09T09:42:58.195Z,1.73
2024-05-09T09:46:03.500Z,2.70
2024-05-09T09:49:06.839Z,2.20
2024-05-09T09:52:15.103Z,2.50
2024-05-09T09:55:17.536Z,2.03
2024-05-09T09:58:22.143Z,2.60
2024-05-09T10:01:24.091Z,2.35
2024-05-09T10:04:28.637Z,2.28
2024-05-09T10:07:34.564Z,2.30
2024-05-09T10:10:39.632Z,1.80
2024-05-09T10:13:44.452Z,1.88
2024-05-09T10:16:46.265Z,2.00
2024-05-09T10:19:50.890Z,2.08
2024-05-09T10:22:55.322Z,2.33
2024-05-09T10:26:05.129Z,2.15
2024-05-09T10:29:12.252Z,2.07
2024-05-09T10:32:16.715Z,2.05
2024-05-09T10:35:22.567Z,2.30
2024-05-09T10:38:29.618Z,2.00
2024-05-09T10:41:33.910Z,1.90
2024-05-09T10:44:40.453Z,1.83
2024-05-09T10:47:45.259Z,1.85
2024-05-09T10:50:47.407Z,2.03
2024-05-09T10:53:56.707Z,2.42
2024-05-09T10:56:58.424Z,1.60
2024-05-09T11:00:06.316Z,2.00
2024-05-09T11:03:11.456Z,2.08
2024-05-09T11:06:17.416Z,1.85
2024-05-09T11:09:22.006Z,1.98
2024-05-09T11:12:27.145Z,2.28
2024-05-09T11:15:38.033Z,1.98
2024-05-09T11:18:43.339Z,1.90
2024-05-09T11:21:50.885Z,1.75
2024-05-09T11:24:57.874Z,2.03
2024-05-09T11:27:59.689Z,2.80
2024-05-09T11:31:09.742Z,2.63
2024-05-09T11:34:12.600Z,2.08
2024-05-09T11:37:17.005Z,2.55
2024-05-09T11:40:25.676Z,2.20
2024-05-09T11:43:36.481Z,1.45
2024-05-09T11:46:38.182Z,1.83
2024-05-09T11:49:42.643Z,2.20
2024-05-09T11:52:47.512Z,2.30
2024-05-09T11:55:54.593Z,1.90
2024-05-09T11:58:56.542Z,1.85
2024-05-09T12:02:01.338Z,1.73
2024-05-09T12:05:03.610Z,2.10
2024-05-09T12:08:09.164Z,1.90
2024-05-09T12:11:16.879Z,1.92
2024-05-09T12:14:22.086Z,1.85
2024-05-09T12:17:23.920Z,1.92
2024-05-09T12:20:36.181Z,1.90
2024-05-09T12:23:43.259Z,2.00
2024-05-09T12:26:50.331Z,1.95
2024-05-09T12:29:54.642Z,1.85
2024-05-09T12:32:56.492Z,1.85
2024-05-09T12:36:01.043Z,2.08
2024-05-09T12:39:03.046Z,1.80
2024-05-09T12:42:12.657Z,2.30
2024-05-09T12:45:23.621Z,1.90
2024-05-09T12:48:25.525Z,2.17
2024-05-09T12:51:31.075Z,1.95
2024-05-09T12:54:36.006Z,1.95
2024-05-09T12:57:40.426Z,1.75
2024-05-09T13:00:44.984Z,2.10
2024-05-09T13:03:47.034Z,1.88
2024-05-09T13:06:51.915Z,2.53
2024-05-09T13:09:56.236Z,1.58
2024-05-09T13:13:01.300Z,1.92
2024-05-09T13:16:07.378Z,1.92
2024-05-09T13:19:09.308Z,2.05
2024-05-09T13:22:13.684Z,2.03
2024-05-09T13:25:15.548Z,1.83
2024-05-09T13:28:22.849Z,1.60
2024-05-09T13:31:24.733Z,1.85
2024-05-09T13:34:29.214Z,2.00
2024-05-09T13:37:33.006Z,1.83
2024-05-09T13:40:38.078Z,1.75
2024-05-09T13:43:42.427Z,2.00
2024-05-09T13:46:46.817Z,1.60
2024-05-09T13:49:48.837Z,1.85
2024-05-09T13:52:53.174Z,2.35
2024-05-09T13:55:54.933Z,1.77
2024-05-09T13:59:01.952Z,1.70
2024-05-09T14:02:07.631Z,2.28
2024-05-09T14:05:12.812Z,1.90
2024-05-09T14:08:15.693Z,1.90
2024-05-09T14:11:20.294Z,1.90
2024-05-09T14:14:27.200Z,1.70
2024-05-09T14:17:29.668Z,1.83
2024-05-09T14:20:34.016Z,1.73
2024-05-09T14:23:38.617Z,1.80
2024-05-09T14:26:40.401Z,1.50
2024-05-09T14:29:47.247Z,1.85
2024-05-09T14:32:49.219Z,1.50
2024-05-09T14:35:54.441Z,1.77
2024-05-09T14:38:56.666Z,1.85
2024-05-09T14:42:01.085Z,1.45
2024-05-09T14:45:06.230Z,2.25
2024-05-09T14:48:11.356Z,2.03
2024-05-09T14:51:13.191Z,1.83
2024-05-09T14:54:17.638Z,1.70
2024-05-09T14:57:19.534Z,1.58
2024-05-09T15:00:33.072Z,1.50
2024-05-09T15:03:40.090Z,2.10
2024-05-09T15:06:44.767Z,1.90
2024-05-09T15:09:47.202Z,1.83
2024-05-09T15:12:51.584Z,1.60
2024-05-09T15:15:56.109Z,1.90
2024-05-09T15:19:00.818Z,1.65
2024-05-09T15:22:02.691Z,1.88
2024-05-09T15:25:07.715Z,1.70
2024-05-09T15:28:12.376Z,1.60
2024-05-09T15:31:16.846Z,1.90
2024-05-09T15:34:21.204Z,1.95
2024-05-09T15:37:23.088Z,1.80
2024-05-09T15:40:36.191Z,1.80
2024-05-09T15:43:44.158Z,1.85
2024-05-09T15:46:48.743Z,1.55
2024-05-09T15:49:53.164Z,1.70
2024-05-09T15:52:55.348Z,1.98
2024-05-09T15:55:59.739Z,1.60
2024-05-09T15:59:01.522Z,1.85
2024-05-09T16:02:11.390Z,2.70
2024-05-09T16:05:15.961Z,1.75
2024-05-09T16:08:20.470Z,2.00
2024-05-09T16:11:24.802Z,1.77
2024-05-09T16:14:26.674Z,2.03
2024-05-09T16:17:33.696Z,2.30
2024-05-09T16:20:40.075Z,1.65
2024-05-09T16:23:47.422Z,1.77
2024-05-09T16:26:49.183Z,2.00
2024-05-09T16:29:53.659Z,1.70
2024-05-09T16:32:58.133Z,1.52
2024-05-09T16:36:02.628Z,1.52
2024-05-09T16:39:04.383Z,1.90
2024-05-09T16:42:08.673Z,1.73
2024-05-09T16:45:12.239Z,2.55
2024-05-09T16:48:19.551Z,2.10
2024-05-09T16:51:24.294Z,2.13
2024-05-09T16:54:28.609Z,1.67
2024-05-09T16:57:33.044Z,1.70
2024-05-09T17:00:40.814Z,2.00
2024-05-09T17:03:50.292Z,3.80
2024-05-09T17:06:54.801Z,3.40
2024-05-09T17:09:56.540Z,2.05
2024-05-09T17:13:01.005Z,1.75
2024-05-09T17:16:05.388Z,2.60
2024-05-09T17:19:12.731Z,2.10
2024-05-09T17:22:15.061Z,2.20
2024-05-09T17:25:20.200Z,1.98
2024-05-09T17:28:22.265Z,2.30
2024-05-09T17:31:26.735Z,2.35
2024-05-09T17:34:33.925Z,1.88
2024-05-09T17:37:36.023Z,2.30
2024-05-09T17:40:40.528Z,2.28
2024-05-09T17:43:42.444Z,2.03
2024-05-09T17:46:46.752Z,2.38
2024-05-09T17:49:51.104Z,2.40
2024-05-09T17:52:55.531Z,2.75
2024-05-09T17:55:59.246Z,3.15
2024-05-09T17:59:03.520Z,2.20
2024-05-09T18:02:05.425Z,2.42
2024-05-09T18:05:12.700Z,2.50
2024-05-09T18:08:17.102Z,2.80
2024-05-09T18:11:21.659Z,2.53
2024-05-09T18:14:23.385Z,2.28
2024-05-09T18:20:40.499Z,2.30
2024-05-09T18:23:52.888Z,2.35
2024-05-09T18:26:57.433Z,1.85
2024-05-09T18:29:59.812Z,2.38
2024-05-09T18:33:05.353Z,2.65
2024-05-09T18:36:13.787Z,2.35
2024-05-09T18:39:16.665Z,2.10
2024-05-09T18:42:21.178Z,2.10
2024-05-09T18:45:22.933Z,2.33
2024-05-09T18:51:32.107Z,1.98
2024-05-09T18:54:36.526Z,2.35
2024-05-09T18:57:40.978Z,2.10
2024-05-09T19:00:45.410Z,2.33
2024-05-09T19:03:52.310Z,2.13
2024-05-09T19:06:56.796Z,2.53
2024-05-09T19:10:01.203Z,3.28
2024-05-09T19:13:08.001Z,2.50
2024-05-09T19:16:15.536Z,2.40
2024-05-09T19:19:17.523Z,2.65
2024-05-09T19:22:24.590Z,2.30
2024-05-09T19:25:26.337Z,2.83
2024-05-09T19:31:34.983Z,2.65
2024-05-09T19:34:39.297Z,2.72
2024-05-09T19:37:44.451Z,2.45
2024-05-09T19:40:48.918Z,2.42
2024-05-09T19:43:50.734Z,2.70
2024-05-09T19:49:56.763Z,2.65
2024-05-09T19:56:05.570Z,3.17
2024-05-09T19:59:09.866Z,2.97
2024-05-09T20:02:11.767Z,2.65
2024-05-09T20:05:16.461Z,2.85
2024-05-09T20:08:20.891Z,2.92
2024-05-09T20:11:26.280Z,3.13
2024-05-09T20:14:28.285Z,2.63
2024-05-09T20:17:32.630Z,2.88
2024-05-09T20:20:39.848Z,3.03
2024-05-09T20:23:49.580Z,2.75
2024-05-09T20:26:51.301Z,2.67
2024-05-09T20:33:00.115Z,2.63
2024-05-09T20:36:04.608Z,2.75
2024-05-09T20:39:09.129Z,3.22
2024-05-09T20:42:13.428Z,2.85
2024-05-09T20:45:15.282Z,3.08
2024-05-09T20:51:23.785Z,2.67
2024-05-09T20:54:28.075Z,2.78
2024-05-09T20:57:32.452Z,2.85
2024-05-09T21:00:39.630Z,2.85
2024-05-09T21:03:47.691Z,3.47
2024-05-09T21:06:49.582Z,2.97
2024-05-09T21:12:58.416Z,2.90
2024-05-09T21:19:04.595Z,2.60
2024-05-09T21:25:13.388Z,2.95
2024-05-09T21:28:17.747Z,3.22
2024-05-09T21:31:19.691Z,3.10
2024-05-09T21:34:24.183Z,3.20
2024-05-09T21:37:26.103Z,3.33
2024-05-09T21:43:41.147Z,2.50
2024-05-09T21:46:43.114Z,2.97
2024-05-09T21:49:47.521Z,3.38
2024-05-09T21:52:49.224Z,3.50
2024-05-09T21:55:56.067Z,3.38
2024-05-09T21:59:00.363Z,2.88
2024-05-09T22:02:02.536Z,3.13
2024-05-09T22:05:08.033Z,2.95
2024-05-09T22:08:12.715Z,3.13
2024-05-09T22:11:17.096Z,3.00
2024-05-09T22:14:21.952Z,2.90
2024-05-09T22:17:23.719Z,2.95
2024-05-09T22:23:39.699Z,3.28
2024-05-09T22:26:46.550Z,2.70
2024-05-09T22:29:48.276Z,2.72
2024-05-09T22:32:52.610Z,3.10
2024-05-09T22:35:54.357Z,3.90
2024-05-09T22:38:58.653Z,3.40
2024-05-09T22:42:03.122Z,3.15
2024-05-09T22:45:08.093Z,3.67
2024-05-09T22:48:10.162Z,2.88
2024-05-09T22:51:15.285Z,2.80
2024-05-09T22:54:16.996Z,2.92
2024-05-09T22:57:23.877Z,3.40
2024-05-09T23:00:31.487Z,3.30
2024-05-09T23:03:37.231Z,3.50
2024-05-09T23:06:43.150Z,3.08
2024-05-09T23:09:44.995Z,3.30
2024-05-09T23:15:53.542Z,2.90
2024-05-09T23:21:59.738Z,2.78
2024-05-09T23:28:11.507Z,2.50
2024-05-09T23:31:13.457Z,2.60
2024-05-09T23:37:19.866Z,3.50
2024-05-09T23:40:34.654Z,3.67
2024-05-09T23:43:43.179Z,3.45
2024-05-09T23:46:47.523Z,3.47
2024-05-09T23:49:49.242Z,3.47
2024-05-09T23:52:53.519Z,3.67
2024-05-09T23:55:55.482Z,3.70
2024-05-09T23:59:02.325Z,3.47
